sensor_id;sensor_type;location;lat;lon;timestamp;P1;durP1;ratioP1;P2;durP2;ratioP2
26014;SDS011;13793;55.388;37.844;2024-03-08T00:00:11;45.12;;;19.10;;
26014;SDS011;13793;55.388;37.844;2024-03-08T00:02:47;51.30;;;21.63;;
26014;SDS011;13793;55.388;37.844;2024-03-08T00:05:19;56.23;;;22.07;;
26014;SDS011;13793;55.388;37.844;2024-03-08T00:07:50;61.68;;;23.77;;
26014;SDS011;13793;55.388;37.844;2024-03-08T00:10:21;59.30;;;22.87;;
26014;SDS011;13793;55.388;37.844;2024-03-08T00:12:52;53.43;;;21.30;;
26014;SDS011;13793;55.388;37.844;2024-03-08T00:15:23;53.57;;;21.10;;
26014;SDS011;13793;55.388;37.844;2024-03-08T00:17:54;50.73;;;21.10;;
26014;SDS011;13793;55.388;37.844;2024-03-08T00:20:24;50.57;;;21.43;;
26014;SDS011;13793;55.388;37.844;2024-03-08T00:22:55;57.07;;;20.70;;
26014;SDS011;13793;55.388;37.844;2024-03-08T00:25:27;52.20;;;20.73;;
26014;SDS011;13793;55.388;37.844;2024-03-08T00:27:58;53.53;;;21.00;;
26014;SDS011;13793;55.388;37.844;2024-03-08T00:30:28;55.07;;;20.93;;
26014;SDS011;13793;55.388;37.844;2024-03-08T00:32:59;51.90;;;19.87;;
26014;SDS011;13793;55.388;37.844;2024-03-08T00:35:30;47.20;;;19.43;;
26014;SDS011;13793;55.388;37.844;2024-03-08T00:38:00;50.00;;;19.63;;
26014;SDS011;13793;55.388;37.844;2024-03-08T00:40:31;51.13;;;20.93;;
26014;SDS011;13793;55.388;37.844;2024-03-08T00:43:02;52.03;;;20.57;;
26014;SDS011;13793;55.388;37.844;2024-03-08T00:45:33;73.10;;;29.03;;
26014;SDS011;13793;55.388;37.844;2024-03-08T00:48:04;56.03;;;23.23;;
26014;SDS011;13793;55.388;37.844;2024-03-08T00:50:34;44.97;;;19.37;;
26014;SDS011;13793;55.388;37.844;2024-03-08T00:53:05;40.57;;;18.57;;
26014;SDS011;13793;55.388;37.844;2024-03-08T00:55:36;49.50;;;20.07;;
26014;SDS011;13793;55.388;37.844;2024-03-08T00:58:07;50.77;;;20.27;;
26014;SDS011;13793;55.388;37.844;2024-03-08T01:00:38;49.33;;;19.70;;
26014;SDS011;13793;55.388;37.844;2024-03-08T01:03:09;47.43;;;18.53;;
26014;SDS011;13793;55.388;37.844;2024-03-08T01:05:40;42.67;;;17.43;;
26014;SDS011;13793;55.388;37.844;2024-03-08T01:08:11;35.67;;;16.50;;
26014;SDS011;13793;55.388;37.844;2024-03-08T01:10:42;41.73;;;16.40;;
26014;SDS011;13793;55.388;37.844;2024-03-08T01:13:12;38.07;;;16.13;;
26014;SDS011;13793;55.388;37.844;2024-03-08T01:15:43;37.03;;;15.83;;
26014;SDS011;13793;55.388;37.844;2024-03-08T01:18:14;32.53;;;14.67;;
26014;SDS011;13793;55.388;37.844;2024-03-08T01:20:45;30.73;;;13.07;;
26014;SDS011;13793;55.388;37.844;2024-03-08T01:23:16;36.93;;;14.97;;
26014;SDS011;13793;55.388;37.844;2024-03-08T01:25:47;32.90;;;14.83;;
26014;SDS011;13793;55.388;37.844;2024-03-08T01:28:19;31.83;;;14.83;;
26014;SDS011;13793;55.388;37.844;2024-03-08T01:30:50;30.40;;;13.87;;
26014;SDS011;13793;55.388;37.844;2024-03-08T01:33:23;33.05;;;14.93;;
26014;SDS011;13793;55.388;37.844;2024-03-08T01:35:55;35.00;;;16.50;;
26014;SDS011;13793;55.388;37.844;2024-03-08T01:38:26;32.23;;;15.63;;
26014;SDS011;13793;55.388;37.844;2024-03-08T01:40:57;32.27;;;15.87;;
26014;SDS011;13793;55.388;37.844;2024-03-08T01:43:28;37.93;;;15.43;;
26014;SDS011;13793;55.388;37.844;2024-03-08T01:45:59;32.60;;;15.40;;
26014;SDS011;13793;55.388;37.844;2024-03-08T01:48:30;28.17;;;13.63;;
26014;SDS011;13793;55.388;37.844;2024-03-08T01:51:01;35.97;;;15.70;;
26014;SDS011;13793;55.388;37.844;2024-03-08T01:53:32;39.67;;;16.57;;
26014;SDS011;13793;55.388;37.844;2024-03-08T01:56:03;41.87;;;18.67;;
26014;SDS011;13793;55.388;37.844;2024-03-08T01:58:34;38.33;;;18.33;;
26014;SDS011;13793;55.388;37.844;2024-03-08T02:01:05;34.27;;;16.50;;
26014;SDS011;13793;55.388;37.844;2024-03-08T02:03:37;33.67;;;16.17;;
26014;SDS011;13793;55.388;37.844;2024-03-08T02:06:08;30.43;;;15.80;;
26014;SDS011;13793;55.388;37.844;2024-03-08T02:08:42;29.77;;;14.00;;
26014;SDS011;13793;55.388;37.844;2024-03-08T02:11:13;25.60;;;13.30;;
26014;SDS011;13793;55.388;37.844;2024-03-08T02:13:45;25.73;;;12.67;;
26014;SDS011;13793;55.388;37.844;2024-03-08T02:16:22;26.17;;;13.20;;
26014;SDS011;13793;55.388;37.844;2024-03-08T02:18:53;21.73;;;12.05;;
26014;SDS011;13793;55.388;37.844;2024-03-08T02:21:25;25.70;;;12.43;;
26014;SDS011;13793;55.388;37.844;2024-03-08T02:23:56;24.03;;;12.80;;
26014;SDS011;13793;55.388;37.844;2024-03-08T02:26:27;23.63;;;12.13;;
26014;SDS011;13793;55.388;37.844;2024-03-08T02:28:58;23.63;;;12.90;;
26014;SDS011;13793;55.388;37.844;2024-03-08T02:31:28;22.53;;;13.23;;
26014;SDS011;13793;55.388;37.844;2024-03-08T02:33:59;23.60;;;12.07;;
26014;SDS011;13793;55.388;37.844;2024-03-08T02:36:30;19.67;;;10.83;;
26014;SDS011;13793;55.388;37.844;2024-03-08T02:39:03;22.63;;;11.00;;
26014;SDS011;13793;55.388;37.844;2024-03-08T02:41:35;21.67;;;9.80;;
26014;SDS011;13793;55.388;37.844;2024-03-08T02:44:05;20.33;;;9.50;;
26014;SDS011;13793;55.388;37.844;2024-03-08T02:46:36;18.87;;;9.53;;
26014;SDS011;13793;55.388;37.844;2024-03-08T02:49:07;18.40;;;9.27;;
26014;SDS011;13793;55.388;37.844;2024-03-08T02:51:37;15.33;;;8.20;;
26014;SDS011;13793;55.388;37.844;2024-03-08T02:54:09;20.43;;;10.17;;
26014;SDS011;13793;55.388;37.844;2024-03-08T02:56:40;18.93;;;9.77;;
26014;SDS011;13793;55.388;37.844;2024-03-08T02:59:10;20.60;;;9.00;;
26014;SDS011;13793;55.388;37.844;2024-03-08T03:01:41;17.63;;;9.03;;
26014;SDS011;13793;55.388;37.844;2024-03-08T03:04:12;18.10;;;9.60;;
26014;SDS011;13793;55.388;37.844;2024-03-08T03:06:42;18.37;;;9.43;;
26014;SDS011;13793;55.388;37.844;2024-03-08T03:09:14;22.80;;;9.97;;
26014;SDS011;13793;55.388;37.844;2024-03-08T03:11:47;21.27;;;9.97;;
26014;SDS011;13793;55.388;37.844;2024-03-08T03:14:17;19.07;;;9.47;;
26014;SDS011;13793;55.388;37.844;2024-03-08T03:16:48;18.13;;;9.23;;
26014;SDS011;13793;55.388;37.844;2024-03-08T03:19:19;24.17;;;12.20;;
26014;SDS011;13793;55.388;37.844;2024-03-08T03:21:50;28.90;;;14.10;;
26014;SDS011;13793;55.388;37.844;2024-03-08T03:24:21;26.23;;;12.67;;
26014;SDS011;13793;55.388;37.844;2024-03-08T03:26:52;22.73;;;11.37;;
26014;SDS011;13793;55.388;37.844;2024-03-08T03:29:23;26.80;;;12.27;;
26014;SDS011;13793;55.388;37.844;2024-03-08T03:31:54;22.93;;;11.80;;
26014;SDS011;13793;55.388;37.844;2024-03-08T03:34:25;22.10;;;12.03;;
26014;SDS011;13793;55.388;37.844;2024-03-08T03:36:57;22.90;;;10.77;;
26014;SDS011;13793;55.388;37.844;2024-03-08T03:39:29;21.33;;;9.97;;
26014;SDS011;13793;55.388;37.844;2024-03-08T03:42:03;19.37;;;9.07;;
26014;SDS011;13793;55.388;37.844;2024-03-08T03:44:34;16.63;;;8.93;;
26014;SDS011;13793;55.388;37.844;2024-03-08T03:47:05;17.97;;;9.50;;
26014;SDS011;13793;55.388;37.844;2024-03-08T03:49:36;18.10;;;9.53;;
26014;SDS011;13793;55.388;37.844;2024-03-08T03:52:07;21.00;;;11.53;;
26014;SDS011;13793;55.388;37.844;2024-03-08T03:54:37;28.17;;;13.73;;
26014;SDS011;13793;55.388;37.844;2024-03-08T03:57:08;29.67;;;14.30;;
26014;SDS011;13793;55.388;37.844;2024-03-08T03:59:40;29.47;;;14.70;;
26014;SDS011;13793;55.388;37.844;2024-03-08T04:02:11;31.73;;;16.03;;
26014;SDS011;13793;55.388;37.844;2024-03-08T04:04:41;29.20;;;14.93;;
26014;SDS011;13793;55.388;37.844;2024-03-08T04:07:14;27.37;;;13.90;;
26014;SDS011;13793;55.388;37.844;2024-03-08T04:09:45;22.87;;;11.17;;
26014;SDS011;13793;55.388;37.844;2024-03-08T04:12:16;17.60;;;9.73;;
26014;SDS011;13793;55.388;37.844;2024-03-08T04:14:47;17.73;;;9.60;;
26014;SDS011;13793;55.388;37.844;2024-03-08T04:17:18;17.13;;;8.87;;
26014;SDS011;13793;55.388;37.844;2024-03-08T04:19:48;15.27;;;9.33;;
26014;SDS011;13793;55.388;37.844;2024-03-08T04:22:20;17.87;;;10.50;;
26014;SDS011;13793;55.388;37.844;2024-03-08T04:24:51;22.80;;;10.50;;
26014;SDS011;13793;55.388;37.844;2024-03-08T04:27:22;15.30;;;9.33;;
26014;SDS011;13793;55.388;37.844;2024-03-08T04:29:52;18.57;;;8.80;;
26014;SDS011;13793;55.388;37.844;2024-03-08T04:32:23;21.60;;;9.43;;
26014;SDS011;13793;55.388;37.844;2024-03-08T04:34:54;15.43;;;8.23;;
26014;SDS011;13793;55.388;37.844;2024-03-08T04:37:25;18.23;;;8.77;;
26014;SDS011;13793;55.388;37.844;2024-03-08T04:39:57;17.13;;;8.10;;
26014;SDS011;13793;55.388;37.844;2024-03-08T04:42:29;17.47;;;8.70;;
26014;SDS011;13793;55.388;37.844;2024-03-08T04:45:02;18.13;;;8.13;;
26014;SDS011;13793;55.388;37.844;2024-03-08T04:47:33;18.97;;;9.20;;
26014;SDS011;13793;55.388;37.844;2024-03-08T04:50:05;27.23;;;15.40;;
26014;SDS011;13793;55.388;37.844;2024-03-08T04:52:37;20.10;;;10.77;;
26014;SDS011;13793;55.388;37.844;2024-03-08T04:55:08;22.23;;;11.90;;
26014;SDS011;13793;55.388;37.844;2024-03-08T04:57:39;14.13;;;9.60;;
26014;SDS011;13793;55.388;37.844;2024-03-08T05:00:12;16.60;;;9.03;;
26014;SDS011;13793;55.388;37.844;2024-03-08T05:02:43;20.50;;;10.60;;
26014;SDS011;13793;55.388;37.844;2024-03-08T05:05:14;14.43;;;8.67;;
26014;SDS011;13793;55.388;37.844;2024-03-08T05:07:45;19.33;;;9.20;;
26014;SDS011;13793;55.388;37.844;2024-03-08T05:10:16;18.83;;;9.97;;
26014;SDS011;13793;55.388;37.844;2024-03-08T05:12:48;18.37;;;9.30;;
26014;SDS011;13793;55.388;37.844;2024-03-08T05:15:19;17.67;;;9.27;;
26014;SDS011;13793;55.388;37.844;2024-03-08T05:17:49;15.30;;;8.80;;
26014;SDS011;13793;55.388;37.844;2024-03-08T05:20:20;16.13;;;9.50;;
26014;SDS011;13793;55.388;37.844;2024-03-08T05:22:51;18.83;;;10.20;;
26014;SDS011;13793;55.388;37.844;2024-03-08T05:25:22;18.73;;;10.00;;
26014;SDS011;13793;55.388;37.844;2024-03-08T05:27:53;17.87;;;9.90;;
26014;SDS011;13793;55.388;37.844;2024-03-08T05:30:24;17.13;;;10.10;;
26014;SDS011;13793;55.388;37.844;2024-03-08T05:32:54;18.73;;;10.23;;
26014;SDS011;13793;55.388;37.844;2024-03-08T05:35:25;20.80;;;10.80;;
26014;SDS011;13793;55.388;37.844;2024-03-08T05:37:56;19.10;;;10.40;;
26014;SDS011;13793;55.388;37.844;2024-03-08T05:40:27;18.73;;;11.10;;
26014;SDS011;13793;55.388;37.844;2024-03-08T05:42:59;18.50;;;10.40;;
26014;SDS011;13793;55.388;37.844;2024-03-08T05:45:30;17.90;;;9.87;;
26014;SDS011;13793;55.388;37.844;2024-03-08T05:48:01;19.87;;;10.30;;
26014;SDS011;13793;55.388;37.844;2024-03-08T05:50:32;17.07;;;9.97;;
26014;SDS011;13793;55.388;37.844;2024-03-08T05:53:02;18.80;;;11.03;;
26014;SDS011;13793;55.388;37.844;2024-03-08T05:55:37;16.27;;;9.77;;
26014;SDS011;13793;55.388;37.844;2024-03-08T05:58:07;18.87;;;11.07;;
26014;SDS011;13793;55.388;37.844;2024-03-08T06:00:39;17.43;;;10.47;;
26014;SDS011;13793;55.388;37.844;2024-03-08T06:03:10;19.80;;;11.70;;
26014;SDS011;13793;55.388;37.844;2024-03-08T06:05:41;20.37;;;11.23;;
26014;SDS011;13793;55.388;37.844;2024-03-08T06:08:11;18.27;;;10.83;;
26014;SDS011;13793;55.388;37.844;2024-03-08T06:10:43;18.30;;;10.30;;
26014;SDS011;13793;55.388;37.844;2024-03-08T06:13:14;20.13;;;11.47;;
26014;SDS011;13793;55.388;37.844;2024-03-08T06:15:45;20.63;;;12.33;;
26014;SDS011;13793;55.388;37.844;2024-03-08T06:18:16;23.93;;;11.30;;
26014;SDS011;13793;55.388;37.844;2024-03-08T06:20:46;18.07;;;11.33;;
26014;SDS011;13793;55.388;37.844;2024-03-08T06:23:18;20.73;;;11.60;;
26014;SDS011;13793;55.388;37.844;2024-03-08T06:25:50;17.93;;;10.97;;
26014;SDS011;13793;55.388;37.844;2024-03-08T06:28:20;19.67;;;11.33;;
26014;SDS011;13793;55.388;37.844;2024-03-08T06:30:51;21.93;;;13.00;;
26014;SDS011;13793;55.388;37.844;2024-03-08T06:33:22;22.47;;;11.50;;
26014;SDS011;13793;55.388;37.844;2024-03-08T06:35:54;24.97;;;11.20;;
26014;SDS011;13793;55.388;37.844;2024-03-08T06:38:25;21.47;;;12.37;;
26014;SDS011;13793;55.388;37.844;2024-03-08T06:40:56;21.23;;;11.40;;
26014;SDS011;13793;55.388;37.844;2024-03-08T06:43:27;20.80;;;12.17;;
26014;SDS011;13793;55.388;37.844;2024-03-08T06:45:59;23.07;;;12.47;;
26014;SDS011;13793;55.388;37.844;2024-03-08T06:48:31;20.53;;;11.57;;
26014;SDS011;13793;55.388;37.844;2024-03-08T06:51:02;24.93;;;12.73;;
26014;SDS011;13793;55.388;37.844;2024-03-08T06:53:33;23.47;;;12.20;;
26014;SDS011;13793;55.388;37.844;2024-03-08T06:56:04;21.90;;;12.07;;
26014;SDS011;13793;55.388;37.844;2024-03-08T06:58:36;22.67;;;11.93;;
26014;SDS011;13793;55.388;37.844;2024-03-08T07:01:07;26.37;;;12.27;;
26014;SDS011;13793;55.388;37.844;2024-03-08T07:03:44;22.37;;;12.03;;
26014;SDS011;13793;55.388;37.844;2024-03-08T07:06:12;22.00;;;12.30;;
26014;SDS011;13793;55.388;37.844;2024-03-08T07:08:43;19.53;;;11.50;;
26014;SDS011;13793;55.388;37.844;2024-03-08T07:11:14;19.13;;;11.97;;
26014;SDS011;13793;55.388;37.844;2024-03-08T07:13:47;21.63;;;12.33;;
26014;SDS011;13793;55.388;37.844;2024-03-08T07:16:18;23.90;;;12.87;;
26014;SDS011;13793;55.388;37.844;2024-03-08T07:18:49;20.70;;;11.73;;
26014;SDS011;13793;55.388;37.844;2024-03-08T07:21:21;19.87;;;11.97;;
26014;SDS011;13793;55.388;37.844;2024-03-08T07:23:52;22.53;;;12.07;;
26014;SDS011;13793;55.388;37.844;2024-03-08T07:26:24;25.73;;;12.47;;
26014;SDS011;13793;55.388;37.844;2024-03-08T07:28:55;20.47;;;12.30;;
26014;SDS011;13793;55.388;37.844;2024-03-08T07:31:27;22.27;;;11.83;;
26014;SDS011;13793;55.388;37.844;2024-03-08T07:34:09;22.60;;;12.07;;
26014;SDS011;13793;55.388;37.844;2024-03-08T07:36:41;19.03;;;12.13;;
26014;SDS011;13793;55.388;37.844;2024-03-08T07:39:11;19.40;;;12.17;;
26014;SDS011;13793;55.388;37.844;2024-03-08T07:41:43;21.60;;;12.60;;
26014;SDS011;13793;55.388;37.844;2024-03-08T07:44:14;19.33;;;12.57;;
26014;SDS011;13793;55.388;37.844;2024-03-08T07:46:45;20.33;;;12.37;;
26014;SDS011;13793;55.388;37.844;2024-03-08T07:49:16;23.00;;;12.60;;
26014;SDS011;13793;55.388;37.844;2024-03-08T07:51:47;24.97;;;12.97;;
26014;SDS011;13793;55.388;37.844;2024-03-08T07:54:18;25.37;;;13.93;;
26014;SDS011;13793;55.388;37.844;2024-03-08T07:56:49;23.37;;;13.80;;
26014;SDS011;13793;55.388;37.844;2024-03-08T07:59:19;21.17;;;13.37;;
26014;SDS011;13793;55.388;37.844;2024-03-08T08:01:50;23.17;;;13.83;;
26014;SDS011;13793;55.388;37.844;2024-03-08T08:04:21;21.30;;;12.63;;
26014;SDS011;13793;55.388;37.844;2024-03-08T08:06:53;19.90;;;12.97;;
26014;SDS011;13793;55.388;37.844;2024-03-08T08:09:24;21.13;;;12.37;;
26014;SDS011;13793;55.388;37.844;2024-03-08T08:12:00;19.53;;;11.97;;
26014;SDS011;13793;55.388;37.844;2024-03-08T08:14:31;23.50;;;13.63;;
26014;SDS011;13793;55.388;37.844;2024-03-08T08:17:02;21.53;;;12.57;;
26014;SDS011;13793;55.388;37.844;2024-03-08T08:19:35;21.20;;;13.60;;
26014;SDS011;13793;55.388;37.844;2024-03-08T08:22:07;20.93;;;12.47;;
26014;SDS011;13793;55.388;37.844;2024-03-08T08:24:38;18.90;;;11.27;;
26014;SDS011;13793;55.388;37.844;2024-03-08T08:27:10;21.27;;;12.70;;
26014;SDS011;13793;55.388;37.844;2024-03-08T08:29:40;19.53;;;12.47;;
26014;SDS011;13793;55.388;37.844;2024-03-08T08:32:11;23.47;;;12.47;;
26014;SDS011;13793;55.388;37.844;2024-03-08T08:34:43;19.53;;;12.50;;
26014;SDS011;13793;55.388;37.844;2024-03-08T08:37:14;24.00;;;13.30;;
26014;SDS011;13793;55.388;37.844;2024-03-08T08:39:45;19.97;;;12.03;;
26014;SDS011;13793;55.388;37.844;2024-03-08T08:42:15;20.30;;;12.27;;
26014;SDS011;13793;55.388;37.844;2024-03-08T08:44:46;18.57;;;11.67;;
26014;SDS011;13793;55.388;37.844;2024-03-08T08:47:18;18.47;;;11.67;;
26014;SDS011;13793;55.388;37.844;2024-03-08T08:49:49;21.23;;;11.83;;
26014;SDS011;13793;55.388;37.844;2024-03-08T08:52:19;21.53;;;12.27;;
26014;SDS011;13793;55.388;37.844;2024-03-08T08:54:50;20.67;;;12.73;;
26014;SDS011;13793;55.388;37.844;2024-03-08T08:57:21;23.87;;;13.07;;
26014;SDS011;13793;55.388;37.844;2024-03-08T08:59:52;19.10;;;12.97;;
26014;SDS011;13793;55.388;37.844;2024-03-08T09:02:23;19.93;;;12.63;;
26014;SDS011;13793;55.388;37.844;2024-03-08T09:04:54;22.77;;;13.33;;
26014;SDS011;13793;55.388;37.844;2024-03-08T09:07:25;22.57;;;13.27;;
26014;SDS011;13793;55.388;37.844;2024-03-08T09:09:56;18.00;;;12.37;;
26014;SDS011;13793;55.388;37.844;2024-03-08T09:12:29;21.03;;;13.00;;
26014;SDS011;13793;55.388;37.844;2024-03-08T09:15:01;20.07;;;12.30;;
26014;SDS011;13793;55.388;37.844;2024-03-08T09:17:33;18.37;;;11.90;;
26014;SDS011;13793;55.388;37.844;2024-03-08T09:20:04;17.60;;;12.03;;
26014;SDS011;13793;55.388;37.844;2024-03-08T09:22:35;17.93;;;11.87;;
26014;SDS011;13793;55.388;37.844;2024-03-08T09:25:06;17.63;;;12.40;;
26014;SDS011;13793;55.388;37.844;2024-03-08T09:27:38;20.67;;;12.37;;
26014;SDS011;13793;55.388;37.844;2024-03-08T09:30:09;18.77;;;12.37;;
26014;SDS011;13793;55.388;37.844;2024-03-08T09:32:41;17.17;;;12.27;;
26014;SDS011;13793;55.388;37.844;2024-03-08T09:35:12;18.43;;;11.97;;
26014;SDS011;13793;55.388;37.844;2024-03-08T09:37:44;17.53;;;11.40;;
26014;SDS011;13793;55.388;37.844;2024-03-08T09:40:16;20.40;;;12.30;;
26014;SDS011;13793;55.388;37.844;2024-03-08T09:42:48;17.87;;;12.40;;
26014;SDS011;13793;55.388;37.844;2024-03-08T09:45:19;19.67;;;13.60;;
26014;SDS011;13793;55.388;37.844;2024-03-08T09:47:52;21.13;;;12.57;;
26014;SDS011;13793;55.388;37.844;2024-03-08T09:50:23;25.47;;;15.00;;
26014;SDS011;13793;55.388;37.844;2024-03-08T09:53:07;18.23;;;11.50;;
26014;SDS011;13793;55.388;37.844;2024-03-08T09:55:38;18.60;;;12.07;;
26014;SDS011;13793;55.388;37.844;2024-03-08T09:58:13;20.00;;;11.67;;
26014;SDS011;13793;55.388;37.844;2024-03-08T10:00:47;17.37;;;11.90;;
26014;SDS011;13793;55.388;37.844;2024-03-08T10:03:19;16.23;;;11.40;;
26014;SDS011;13793;55.388;37.844;2024-03-08T10:05:51;16.67;;;11.77;;
26014;SDS011;13793;55.388;37.844;2024-03-08T10:08:23;20.37;;;12.17;;
26014;SDS011;13793;55.388;37.844;2024-03-08T10:10:53;18.23;;;11.83;;
26014;SDS011;13793;55.388;37.844;2024-03-08T10:13:26;20.50;;;12.30;;
26014;SDS011;13793;55.388;37.844;2024-03-08T10:15:58;19.30;;;11.43;;
26014;SDS011;13793;55.388;37.844;2024-03-08T10:18:29;14.83;;;11.27;;
26014;SDS011;13793;55.388;37.844;2024-03-08T10:21:02;20.70;;;11.63;;
26014;SDS011;13793;55.388;37.844;2024-03-08T10:23:38;22.45;;;12.75;;
26014;SDS011;13793;55.388;37.844;2024-03-08T10:28:49;23.40;;;13.87;;
26014;SDS011;13793;55.388;37.844;2024-03-08T10:31:23;21.53;;;13.67;;
26014;SDS011;13793;55.388;37.844;2024-03-08T10:33:57;23.67;;;13.30;;
26014;SDS011;13793;55.388;37.844;2024-03-08T10:36:28;18.60;;;12.90;;
26014;SDS011;13793;55.388;37.844;2024-03-08T10:38:59;21.50;;;13.97;;
26014;SDS011;13793;55.388;37.844;2024-03-08T10:41:33;20.40;;;13.43;;
26014;SDS011;13793;55.388;37.844;2024-03-08T10:49:25;20.83;;;13.80;;
26014;SDS011;13793;55.388;37.844;2024-03-08T10:51:56;23.43;;;15.00;;
26014;SDS011;13793;55.388;37.844;2024-03-08T10:54:27;20.40;;;13.03;;
26014;SDS011;13793;55.388;37.844;2024-03-08T10:57:05;20.57;;;13.38;;
26014;SDS011;13793;55.388;37.844;2024-03-08T10:59:37;19.80;;;13.60;;
26014;SDS011;13793;55.388;37.844;2024-03-08T11:02:14;19.87;;;12.67;;
26014;SDS011;13793;55.388;37.844;2024-03-08T11:04:49;19.70;;;12.50;;
26014;SDS011;13793;55.388;37.844;2024-03-08T11:07:21;19.47;;;12.50;;
26014;SDS011;13793;55.388;37.844;2024-03-08T11:09:55;23.30;;;13.20;;
26014;SDS011;13793;55.388;37.844;2024-03-08T11:12:26;18.63;;;12.93;;
26014;SDS011;13793;55.388;37.844;2024-03-08T11:14:59;18.83;;;12.57;;
26014;SDS011;13793;55.388;37.844;2024-03-08T11:20:18;21.90;;;13.00;;
26014;SDS011;13793;55.388;37.844;2024-03-08T11:22:52;19.63;;;12.37;;
26014;SDS011;13793;55.388;37.844;2024-03-08T11:25:35;22.40;;;12.93;;
26014;SDS011;13793;55.388;37.844;2024-03-08T11:28:22;19.90;;;13.37;;
26014;SDS011;13793;55.388;37.844;2024-03-08T11:33:34;22.20;;;13.43;;
26014;SDS011;13793;55.388;37.844;2024-03-08T11:41:16;23.10;;;13.93;;
26014;SDS011;13793;55.388;37.844;2024-03-08T11:44:04;17.32;;;11.83;;
26014;SDS011;13793;55.388;37.844;2024-03-08T11:46:35;20.97;;;13.00;;
26014;SDS011;13793;55.388;37.844;2024-03-08T11:49:09;22.03;;;12.63;;
26014;SDS011;13793;55.388;37.844;2024-03-08T11:51:40;20.93;;;12.70;;
26014;SDS011;13793;55.388;37.844;2024-03-08T11:54:12;19.83;;;12.97;;
26014;SDS011;13793;55.388;37.844;2024-03-08T11:56:44;20.03;;;12.17;;
26014;SDS011;13793;55.388;37.844;2024-03-08T11:59:17;19.50;;;12.93;;
26014;SDS011;13793;55.388;37.844;2024-03-08T12:02:07;21.63;;;13.33;;
26014;SDS011;13793;55.388;37.844;2024-03-08T12:04:39;19.30;;;12.30;;
26014;SDS011;13793;55.388;37.844;2024-03-08T12:07:10;21.50;;;13.27;;
26014;SDS011;13793;55.388;37.844;2024-03-08T12:09:42;21.93;;;13.83;;
26014;SDS011;13793;55.388;37.844;2024-03-08T12:12:15;23.53;;;14.13;;
26014;SDS011;13793;55.388;37.844;2024-03-08T12:14:45;20.93;;;13.60;;
26014;SDS011;13793;55.388;37.844;2024-03-08T12:17:18;18.73;;;12.17;;
26014;SDS011;13793;55.388;37.844;2024-03-08T12:19:50;22.63;;;12.57;;
26014;SDS011;13793;55.388;37.844;2024-03-08T12:22:25;21.50;;;12.67;;
26014;SDS011;13793;55.388;37.844;2024-03-08T12:25:02;19.63;;;13.03;;
26014;SDS011;13793;55.388;37.844;2024-03-08T12:27:36;20.93;;;13.37;;
26014;SDS011;13793;55.388;37.844;2024-03-08T12:30:17;24.03;;;13.60;;
26014;SDS011;13793;55.388;37.844;2024-03-08T12:32:52;21.53;;;13.30;;
26014;SDS011;13793;55.388;37.844;2024-03-08T12:35:27;21.77;;;13.30;;
26014;SDS011;13793;55.388;37.844;2024-03-08T12:37:59;18.83;;;12.10;;
26014;SDS011;13793;55.388;37.844;2024-03-08T12:40:31;19.47;;;12.70;;
26014;SDS011;13793;55.388;37.844;2024-03-08T12:43:03;19.33;;;12.40;;
26014;SDS011;13793;55.388;37.844;2024-03-08T12:45:47;23.57;;;12.87;;
26014;SDS011;13793;55.388;37.844;2024-03-08T12:48:18;19.80;;;12.67;;
26014;SDS011;13793;55.388;37.844;2024-03-08T12:50:49;19.30;;;12.03;;
26014;SDS011;13793;55.388;37.844;2024-03-08T12:53:24;19.87;;;12.40;;
26014;SDS011;13793;55.388;37.844;2024-03-08T12:55:56;20.43;;;12.70;;
26014;SDS011;13793;55.388;37.844;2024-03-08T12:58:42;21.63;;;12.80;;
26014;SDS011;13793;55.388;37.844;2024-03-08T13:01:13;20.00;;;12.70;;
26014;SDS011;13793;55.388;37.844;2024-03-08T13:03:46;22.07;;;13.27;;
26014;SDS011;13793;55.388;37.844;2024-03-08T13:06:21;22.60;;;13.53;;
26014;SDS011;13793;55.388;37.844;2024-03-08T13:08:53;20.20;;;11.83;;
26014;SDS011;13793;55.388;37.844;2024-03-08T13:11:24;19.03;;;12.43;;
26014;SDS011;13793;55.388;37.844;2024-03-08T13:13:55;18.93;;;11.80;;
26014;SDS011;13793;55.388;37.844;2024-03-08T13:16:28;18.13;;;11.63;;
26014;SDS011;13793;55.388;37.844;2024-03-08T13:18:59;17.50;;;11.50;;
26014;SDS011;13793;55.388;37.844;2024-03-08T13:21:30;18.80;;;11.00;;
26014;SDS011;13793;55.388;37.844;2024-03-08T13:24:13;18.27;;;11.53;;
26014;SDS011;13793;55.388;37.844;2024-03-08T13:26:45;17.00;;;11.10;;
26014;SDS011;13793;55.388;37.844;2024-03-08T13:29:15;16.93;;;10.87;;
26014;SDS011;13793;55.388;37.844;2024-03-08T13:31:50;17.60;;;11.20;;
26014;SDS011;13793;55.388;37.844;2024-03-08T13:34:23;17.47;;;10.40;;
26014;SDS011;13793;55.388;37.844;2024-03-08T13:36:56;16.27;;;11.07;;
26014;SDS011;13793;55.388;37.844;2024-03-08T13:39:30;18.50;;;11.20;;
26014;SDS011;13793;55.388;37.844;2024-03-08T13:42:02;18.93;;;11.80;;
26014;SDS011;13793;55.388;37.844;2024-03-08T13:44:35;18.27;;;11.30;;
26014;SDS011;13793;55.388;37.844;2024-03-08T13:47:06;23.33;;;13.73;;
26014;SDS011;13793;55.388;37.844;2024-03-08T13:49:40;19.40;;;11.63;;
26014;SDS011;13793;55.388;37.844;2024-03-08T13:52:14;19.97;;;11.37;;
26014;SDS011;13793;55.388;37.844;2024-03-08T13:54:46;18.93;;;10.90;;
26014;SDS011;13793;55.388;37.844;2024-03-08T13:57:17;19.10;;;11.57;;
26014;SDS011;13793;55.388;37.844;2024-03-08T13:59:47;16.80;;;11.03;;
26014;SDS011;13793;55.388;37.844;2024-03-08T14:02:19;18.80;;;11.90;;
26014;SDS011;13793;55.388;37.844;2024-03-08T14:04:51;17.00;;;11.30;;
26014;SDS011;13793;55.388;37.844;2024-03-08T14:07:23;18.00;;;11.17;;
26014;SDS011;13793;55.388;37.844;2024-03-08T14:09:54;16.97;;;10.90;;
26014;SDS011;13793;55.388;37.844;2024-03-08T14:12:25;18.03;;;10.93;;
26014;SDS011;13793;55.388;37.844;2024-03-08T14:14:56;16.30;;;10.00;;
26014;SDS011;13793;55.388;37.844;2024-03-08T14:17:30;21.20;;;10.93;;
26014;SDS011;13793;55.388;37.844;2024-03-08T14:20:01;21.37;;;10.60;;
26014;SDS011;13793;55.388;37.844;2024-03-08T14:22:32;19.37;;;10.83;;
26014;SDS011;13793;55.388;37.844;2024-03-08T14:25:03;18.10;;;10.63;;
26014;SDS011;13793;55.388;37.844;2024-03-08T14:27:37;17.73;;;10.10;;
26014;SDS011;13793;55.388;37.844;2024-03-08T14:30:08;17.50;;;9.87;;
26014;SDS011;13793;55.388;37.844;2024-03-08T14:32:40;16.80;;;9.67;;
26014;SDS011;13793;55.388;37.844;2024-03-08T14:35:13;15.40;;;9.47;;
26014;SDS011;13793;55.388;37.844;2024-03-08T14:37:46;16.03;;;10.23;;
26014;SDS011;13793;55.388;37.844;2024-03-08T14:40:20;17.37;;;10.13;;
26014;SDS011;13793;55.388;37.844;2024-03-08T14:42:54;17.53;;;10.90;;
26014;SDS011;13793;55.388;37.844;2024-03-08T14:45:25;15.23;;;10.53;;
26014;SDS011;13793;55.388;37.844;2024-03-08T14:47:56;17.73;;;10.20;;
26014;SDS011;13793;55.388;37.844;2024-03-08T14:50:28;22.47;;;11.00;;
26014;SDS011;13793;55.388;37.844;2024-03-08T14:53:00;17.33;;;9.97;;
26014;SDS011;13793;55.388;37.844;2024-03-08T14:55:32;16.10;;;9.83;;